Hauptseite
METAR-TAF:

METAR-TAF

Flughäfen :

Flughafen Paris-Beauvais-Tillé

Beauvais, Frankreich

Breite: 49-28N, Länge: 002-07E, Höhe: 109 m

Beobachtung

Neuester Wetterbericht von vor 52 Minuten, um 11:00 UTC
Wind 5 kt aus Südost
Temperatur 10°C
Luftfeuchtigkeit 93%
Luftdruck 1025 hPa
Sichtweite: 4300 m
Leicht bewölkt in der Höhe von 500 ft

METAR: LFOB 141100Z AUTO 13005KT 9000 4300 FEW005 10/09 Q1025 NOSIG

Zeit: 12:52 (11:52 UTC)

Prognose

Neuester Wetterbericht von vor 52 Minuten, um 11:00 UTC
Gültige Prognose vom 14 um 12 UTC bis 15 um 12 UTC
Wind 6 kt aus Südost
Sichtweite: 8000 m
Übergehend zu
vom 14 um 21 UTC bis 14 um 24 UTC
Sichtweite: 1200 m
Nebelschwaden
Zeitweise
vom 15 um 00 UTC bis 15 um 11 UTC
Sichtweite: 0300 m
Nebel

TAF: LFOB 141100Z 1412/1512 13006KT 8000 NSC BECMG 1421/1424 1200 BCFG TEMPO 1500/1511 0300 FG VV///

Wetterbeobachtungen und Prognosen von mehr als 4000 Flughäfen (METAR und TAF Bericht).

Die verfügbaren Stationen werden durch gelbe und rote Markierungen auf der Karte dargestellt.

Führen Sie die Maus auf sie, um den Namen der Station zu sehen.

Darauf klicken, um die Beobachtung von Wetterbeobachtungen und Prognosen zu sehen.

Um die Karte zu ändern : klicken Sie auf den grünen Tasten mit einem schwarzen Kreuz Zum Vergrößern, auf den grünen Button mit einem Gedankenstrich zu verkleinern, oder auf die grünen Pfeile für benachbarte Karten.


METAR-TAF: